Main page
METAR-TAF:

METAR-TAF

Airports :

Wattisham Flying Station

Wattisham, England

latitude: 52-07N, longitude: 000-58E, elevation: 87 m

Current weather observation

The report was made 1 hour and 14 minutes ago, at 06:50 UTC
Wind 5 kt from the Northeast
Temperature -3°C
Humidity 93%
Pressure 1014 hPa
Visibility: 6000 m
mist

METAR: EGUW 200650Z AUTO 04005KT 6000 BR NCD M03/M04 Q1014

Time: 08:04 (08:04 UTC)


TAF: missing

Weather observations and forecasts of more than 4000 airports (METAR and TAF reports).

The available stations are represented by yellow and red dots on the map.

Hover mouse over dot to see the name of the station.

Then click to see weather observations and forecasts.

To change the map : click on the green buttons with a black cross to zoom in, on the green button with a dash to zoom out, or on the green arrows for adjacent maps.


METAR-TAF: